sensor_id;sensor_type;location;lat;lon;timestamp;pressure;altitude;pressure_sealevel;temperature;humidity
48810;BME280;40070;47.322;18.784;2023-06-26T00:01:55;1001.70;;;19.84;67.19
48810;BME280;40070;47.322;18.784;2023-06-26T00:03:58;1001.70;;;19.87;67.07
48810;BME280;40070;47.322;18.784;2023-06-26T00:06:00;1001.73;;;19.83;66.98
48810;BME280;40070;47.322;18.784;2023-06-26T00:08:03;1001.72;;;19.64;67.56
48810;BME280;40070;47.322;18.784;2023-06-26T00:10:06;1001.73;;;19.56;67.24
48810;BME280;40070;47.322;18.784;2023-06-26T00:12:08;1001.75;;;19.64;67.59
48810;BME280;40070;47.322;18.784;2023-06-26T00:14:11;1001.75;;;19.56;67.80
48810;BME280;40070;47.322;18.784;2023-06-26T00:16:13;1001.76;;;19.69;67.61
48810;BME280;40070;47.322;18.784;2023-06-26T00:18:16;1001.69;;;19.58;67.53
48810;BME280;40070;47.322;18.784;2023-06-26T00:20:18;1001.72;;;19.67;67.30
48810;BME280;40070;47.322;18.784;2023-06-26T00:22:21;1001.69;;;19.56;67.16
48810;BME280;40070;47.322;18.784;2023-06-26T00:24:24;1001.68;;;19.52;67.23
48810;BME280;40070;47.322;18.784;2023-06-26T00:26:26;1001.70;;;19.47;67.67
48810;BME280;40070;47.322;18.784;2023-06-26T00:28:29;1001.70;;;19.37;67.93
48810;BME280;40070;47.322;18.784;2023-06-26T00:30:31;1001.76;;;19.34;68.18
48810;BME280;40070;47.322;18.784;2023-06-26T00:32:34;1001.73;;;19.46;67.50
48810;BME280;40070;47.322;18.784;2023-06-26T00:34:36;1001.74;;;19.29;68.00
48810;BME280;40070;47.322;18.784;2023-06-26T00:36:39;1001.76;;;19.37;68.02
48810;BME280;40070;47.322;18.784;2023-06-26T00:38:41;1001.76;;;19.29;67.98
48810;BME280;40070;47.322;18.784;2023-06-26T00:40:43;1001.71;;;19.10;68.61
48810;BME280;40070;47.322;18.784;2023-06-26T00:42:46;1001.72;;;18.96;69.20
48810;BME280;40070;47.322;18.784;2023-06-26T00:44:48;1001.72;;;19.12;68.78
48810;BME280;40070;47.322;18.784;2023-06-26T00:46:51;1001.72;;;18.92;69.79
48810;BME280;40070;47.322;18.784;2023-06-26T00:48:53;1001.70;;;18.94;69.59
48810;BME280;40070;47.322;18.784;2023-06-26T00:50:56;1001.71;;;18.94;69.48
48810;BME280;40070;47.322;18.784;2023-06-26T00:52:58;1001.70;;;18.91;69.84
48810;BME280;40070;47.322;18.784;2023-06-26T00:55:01;1001.74;;;18.87;69.86
48810;BME280;40070;47.322;18.784;2023-06-26T00:57:04;1001.72;;;18.70;70.51
48810;BME280;40070;47.322;18.784;2023-06-26T00:59:06;1001.71;;;18.84;70.14
48810;BME280;40070;47.322;18.784;2023-06-26T01:01:09;1001.66;;;18.90;70.16
48810;BME280;40070;47.322;18.784;2023-06-26T01:03:11;1001.69;;;18.79;70.61
48810;BME280;40070;47.322;18.784;2023-06-26T01:05:14;1001.59;;;18.95;69.89
48810;BME280;40070;47.322;18.784;2023-06-26T01:07:17;1001.61;;;18.70;70.68
48810;BME280;40070;47.322;18.784;2023-06-26T01:09:21;1001.64;;;18.65;70.50
48810;BME280;40070;47.322;18.784;2023-06-26T01:11:24;1001.57;;;18.74;70.17
48810;BME280;40070;47.322;18.784;2023-06-26T01:13:27;1001.58;;;18.86;69.75
48810;BME280;40070;47.322;18.784;2023-06-26T01:15:31;1001.55;;;18.80;70.02
48810;BME280;40070;47.322;18.784;2023-06-26T01:17:33;1001.54;;;18.76;69.81
48810;BME280;40070;47.322;18.784;2023-06-26T01:19:37;1001.55;;;18.91;69.41
48810;BME280;40070;47.322;18.784;2023-06-26T01:21:40;1001.50;;;18.77;69.98
48810;BME280;40070;47.322;18.784;2023-06-26T01:23:49;1001.49;;;18.79;69.91
48810;BME280;40070;47.322;18.784;2023-06-26T01:26:14;1001.48;;;18.87;69.64
48810;BME280;40070;47.322;18.784;2023-06-26T01:28:18;1001.52;;;18.73;70.26
48810;BME280;40070;47.322;18.784;2023-06-26T01:30:21;1001.54;;;18.72;70.03
48810;BME280;40070;47.322;18.784;2023-06-26T01:32:24;1001.56;;;18.44;70.80
48810;BME280;40070;47.322;18.784;2023-06-26T01:34:26;1001.55;;;18.29;71.39
48810;BME280;40070;47.322;18.784;2023-06-26T01:36:29;1001.50;;;18.41;71.11
48810;BME280;40070;47.322;18.784;2023-06-26T01:38:32;1001.49;;;18.76;69.83
48810;BME280;40070;47.322;18.784;2023-06-26T01:40:34;1001.48;;;18.71;69.77
48810;BME280;40070;47.322;18.784;2023-06-26T01:42:37;1001.50;;;18.63;70.03
48810;BME280;40070;47.322;18.784;2023-06-26T01:44:41;1001.45;;;18.87;69.22
48810;BME280;40070;47.322;18.784;2023-06-26T01:46:59;1001.47;;;18.70;69.68
48810;BME280;40070;47.322;18.784;2023-06-26T01:51:48;1001.49;;;18.40;70.04
48810;BME280;40070;47.322;18.784;2023-06-26T01:53:46;1001.51;;;18.13;71.03
48810;BME280;40070;47.322;18.784;2023-06-26T01:55:59;1001.50;;;18.27;70.61
48810;BME280;40070;47.322;18.784;2023-06-26T01:58:02;1001.55;;;18.08;71.00
48810;BME280;40070;47.322;18.784;2023-06-26T02:00:05;1001.53;;;18.33;70.19
48810;BME280;40070;47.322;18.784;2023-06-26T02:02:07;1001.48;;;18.43;69.66
48810;BME280;40070;47.322;18.784;2023-06-26T02:04:10;1001.49;;;18.42;69.50
48810;BME280;40070;47.322;18.784;2023-06-26T02:06:13;1001.47;;;18.45;69.19
48810;BME280;40070;47.322;18.784;2023-06-26T02:08:15;1001.50;;;18.30;69.86
48810;BME280;40070;47.322;18.784;2023-06-26T02:10:18;1001.46;;;18.33;69.70
48810;BME280;40070;47.322;18.784;2023-06-26T02:12:20;1001.43;;;18.19;70.24
48810;BME280;40070;47.322;18.784;2023-06-26T02:14:23;1001.46;;;18.09;71.04
48810;BME280;40070;47.322;18.784;2023-06-26T02:16:25;1001.46;;;18.35;70.62
48810;BME280;40070;47.322;18.784;2023-06-26T02:18:28;1001.43;;;18.47;69.84
48810;BME280;40070;47.322;18.784;2023-06-26T02:20:30;1001.43;;;18.63;69.28
48810;BME280;40070;47.322;18.784;2023-06-26T02:22:33;1001.47;;;18.51;69.44
48810;BME280;40070;47.322;18.784;2023-06-26T02:24:35;1001.46;;;18.52;69.04
48810;BME280;40070;47.322;18.784;2023-06-26T02:26:38;1001.48;;;18.48;69.10
48810;BME280;40070;47.322;18.784;2023-06-26T02:28:40;1001.50;;;18.53;69.02
48810;BME280;40070;47.322;18.784;2023-06-26T02:30:43;1001.47;;;18.44;68.97
48810;BME280;40070;47.322;18.784;2023-06-26T02:32:45;1001.44;;;18.42;69.19
48810;BME280;40070;47.322;18.784;2023-06-26T02:34:48;1001.50;;;18.32;69.12
48810;BME280;40070;47.322;18.784;2023-06-26T02:36:50;1001.49;;;18.26;69.37
48810;BME280;40070;47.322;18.784;2023-06-26T02:38:53;1001.52;;;18.32;69.33
48810;BME280;40070;47.322;18.784;2023-06-26T02:40:55;1001.52;;;18.21;69.68
48810;BME280;40070;47.322;18.784;2023-06-26T02:42:58;1001.53;;;18.24;69.50
48810;BME280;40070;47.322;18.784;2023-06-26T02:45:00;1001.52;;;18.13;70.24
48810;BME280;40070;47.322;18.784;2023-06-26T02:47:03;1001.53;;;18.27;69.76
48810;BME280;40070;47.322;18.784;2023-06-26T02:49:06;1001.52;;;18.28;69.91
48810;BME280;40070;47.322;18.784;2023-06-26T02:51:08;1001.51;;;18.32;69.79
48810;BME280;40070;47.322;18.784;2023-06-26T02:53:11;1001.52;;;18.25;70.14
48810;BME280;40070;47.322;18.784;2023-06-26T02:55:14;1001.57;;;18.19;70.40
48810;BME280;40070;47.322;18.784;2023-06-26T02:57:16;1001.59;;;18.04;70.90
48810;BME280;40070;47.322;18.784;2023-06-26T02:59:19;1001.59;;;18.00;71.21
48810;BME280;40070;47.322;18.784;2023-06-26T03:01:21;1001.61;;;17.90;71.78
48810;BME280;40070;47.322;18.784;2023-06-26T03:03:24;1001.63;;;18.06;71.19
48810;BME280;40070;47.322;18.784;2023-06-26T03:05:26;1001.61;;;18.09;70.88
48810;BME280;40070;47.322;18.784;2023-06-26T03:07:29;1001.63;;;18.09;70.74
48810;BME280;40070;47.322;18.784;2023-06-26T03:09:31;1001.60;;;18.11;70.41
48810;BME280;40070;47.322;18.784;2023-06-26T03:11:34;1001.63;;;17.95;70.84
48810;BME280;40070;47.322;18.784;2023-06-26T03:13:36;1001.69;;;17.97;70.75
48810;BME280;40070;47.322;18.784;2023-06-26T03:15:39;1001.66;;;17.90;71.33
48810;BME280;40070;47.322;18.784;2023-06-26T03:17:41;1001.69;;;17.82;70.71
48810;BME280;40070;47.322;18.784;2023-06-26T03:19:44;1001.74;;;17.67;71.47
48810;BME280;40070;47.322;18.784;2023-06-26T03:21:47;1001.76;;;17.82;71.60
48810;BME280;40070;47.322;18.784;2023-06-26T03:23:49;1001.73;;;17.84;70.81
48810;BME280;40070;47.322;18.784;2023-06-26T03:25:52;1001.72;;;17.96;70.45
48810;BME280;40070;47.322;18.784;2023-06-26T03:27:55;1001.71;;;18.04;70.20
48810;BME280;40070;47.322;18.784;2023-06-26T03:29:58;1001.73;;;18.19;69.96
48810;BME280;40070;47.322;18.784;2023-06-26T03:32:00;1001.75;;;18.02;71.09
48810;BME280;40070;47.322;18.784;2023-06-26T03:34:03;1001.73;;;18.06;71.41
48810;BME280;40070;47.322;18.784;2023-06-26T03:36:05;1001.75;;;18.17;71.05
48810;BME280;40070;47.322;18.784;2023-06-26T03:38:08;1001.75;;;18.16;71.06
48810;BME280;40070;47.322;18.784;2023-06-26T03:40:10;1001.76;;;18.03;70.86
48810;BME280;40070;47.322;18.784;2023-06-26T03:42:13;1001.82;;;18.10;70.85
48810;BME280;40070;47.322;18.784;2023-06-26T03:44:15;1001.79;;;18.06;71.07
48810;BME280;40070;47.322;18.784;2023-06-26T03:46:18;1001.76;;;17.93;71.50
48810;BME280;40070;47.322;18.784;2023-06-26T03:48:20;1001.75;;;17.90;71.75
48810;BME280;40070;47.322;18.784;2023-06-26T03:50:23;1001.80;;;17.74;72.67
48810;BME280;40070;47.322;18.784;2023-06-26T03:52:25;1001.79;;;18.12;71.61
48810;BME280;40070;47.322;18.784;2023-06-26T03:54:28;1001.84;;;18.31;71.27
48810;BME280;40070;47.322;18.784;2023-06-26T03:56:30;1001.84;;;18.31;71.38
48810;BME280;40070;47.322;18.784;2023-06-26T03:58:33;1001.85;;;18.35;71.29
48810;BME280;40070;47.322;18.784;2023-06-26T04:00:35;1001.88;;;18.50;70.93
48810;BME280;40070;47.322;18.784;2023-06-26T04:02:38;1001.91;;;18.66;70.33
48810;BME280;40070;47.322;18.784;2023-06-26T04:04:40;1001.90;;;18.73;70.45
48810;BME280;40070;47.322;18.784;2023-06-26T04:06:43;1001.88;;;18.99;69.24
48810;BME280;40070;47.322;18.784;2023-06-26T04:08:45;1001.87;;;19.02;69.12
48810;BME280;40070;47.322;18.784;2023-06-26T04:10:48;1001.88;;;19.06;69.35
48810;BME280;40070;47.322;18.784;2023-06-26T04:12:50;1001.88;;;19.15;68.78
48810;BME280;40070;47.322;18.784;2023-06-26T04:14:53;1001.92;;;19.14;69.66
48810;BME280;40070;47.322;18.784;2023-06-26T04:16:55;1001.91;;;19.26;68.87
48810;BME280;40070;47.322;18.784;2023-06-26T04:18:57;1001.90;;;19.27;69.29
48810;BME280;40070;47.322;18.784;2023-06-26T04:21:03;1001.94;;;19.35;69.52
48810;BME280;40070;47.322;18.784;2023-06-26T04:23:07;1001.95;;;19.51;69.00
48810;BME280;40070;47.322;18.784;2023-06-26T04:25:09;1001.91;;;19.67;68.61
48810;BME280;40070;47.322;18.784;2023-06-26T04:27:12;1001.91;;;19.76;68.68
48810;BME280;40070;47.322;18.784;2023-06-26T04:29:14;1001.91;;;19.44;68.36
48810;BME280;40070;47.322;18.784;2023-06-26T04:31:16;1001.87;;;19.23;69.19
48810;BME280;40070;47.322;18.784;2023-06-26T04:33:19;1001.91;;;19.63;68.35
48810;BME280;40070;47.322;18.784;2023-06-26T04:35:21;1001.92;;;19.59;68.56
48810;BME280;40070;47.322;18.784;2023-06-26T04:37:24;1001.92;;;19.60;68.76
48810;BME280;40070;47.322;18.784;2023-06-26T04:39:26;1001.91;;;19.86;68.40
48810;BME280;40070;47.322;18.784;2023-06-26T04:41:29;1001.90;;;19.75;68.25
48810;BME280;40070;47.322;18.784;2023-06-26T04:43:31;1001.94;;;19.77;67.41
48810;BME280;40070;47.322;18.784;2023-06-26T04:45:34;1001.95;;;19.75;67.87
48810;BME280;40070;47.322;18.784;2023-06-26T04:47:36;1001.96;;;19.88;67.40
48810;BME280;40070;47.322;18.784;2023-06-26T04:49:39;1002.01;;;19.88;67.24
48810;BME280;40070;47.322;18.784;2023-06-26T04:51:41;1002.03;;;19.92;66.63
48810;BME280;40070;47.322;18.784;2023-06-26T04:53:44;1002.07;;;19.83;66.44
48810;BME280;40070;47.322;18.784;2023-06-26T04:55:46;1002.07;;;19.83;66.34
48810;BME280;40070;47.322;18.784;2023-06-26T04:57:49;1002.08;;;19.87;65.06
48810;BME280;40070;47.322;18.784;2023-06-26T04:59:51;1002.04;;;19.64;64.97
48810;BME280;40070;47.322;18.784;2023-06-26T05:01:54;1002.03;;;19.77;66.79
48810;BME280;40070;47.322;18.784;2023-06-26T05:03:56;1002.04;;;19.87;65.79
48810;BME280;40070;47.322;18.784;2023-06-26T05:06:03;1002.03;;;19.97;65.93
48810;BME280;40070;47.322;18.784;2023-06-26T05:08:15;1001.97;;;20.06;65.66
48810;BME280;40070;47.322;18.784;2023-06-26T05:10:18;1001.99;;;20.45;64.66
48810;BME280;40070;47.322;18.784;2023-06-26T05:12:21;1001.97;;;20.42;65.42
48810;BME280;40070;47.322;18.784;2023-06-26T05:14:23;1001.89;;;20.66;64.06
48810;BME280;40070;47.322;18.784;2023-06-26T05:16:26;1001.91;;;20.76;63.05
48810;BME280;40070;47.322;18.784;2023-06-26T05:18:28;1001.91;;;20.95;63.11
48810;BME280;40070;47.322;18.784;2023-06-26T05:20:31;1001.90;;;21.06;62.94
48810;BME280;40070;47.322;18.784;2023-06-26T05:22:33;1001.91;;;21.25;62.87
48810;BME280;40070;47.322;18.784;2023-06-26T05:24:36;1001.92;;;21.02;63.25
48810;BME280;40070;47.322;18.784;2023-06-26T05:26:39;1001.96;;;20.99;63.87
48810;BME280;40070;47.322;18.784;2023-06-26T05:28:42;1001.97;;;21.03;63.23
48810;BME280;40070;47.322;18.784;2023-06-26T05:30:45;1001.93;;;21.21;63.24
48810;BME280;40070;47.322;18.784;2023-06-26T05:32:47;1001.95;;;21.38;62.13
48810;BME280;40070;47.322;18.784;2023-06-26T05:34:50;1001.96;;;21.45;62.02
48810;BME280;40070;47.322;18.784;2023-06-26T05:36:57;1001.93;;;21.53;62.37
48810;BME280;40070;47.322;18.784;2023-06-26T05:39:00;1001.92;;;21.80;61.25
48810;BME280;40070;47.322;18.784;2023-06-26T05:41:03;1001.91;;;21.87;60.88
48810;BME280;40070;47.322;18.784;2023-06-26T05:43:05;1001.91;;;21.87;61.22
48810;BME280;40070;47.322;18.784;2023-06-26T05:45:09;1001.90;;;22.01;60.31
48810;BME280;40070;47.322;18.784;2023-06-26T05:47:11;1001.92;;;22.25;60.24
48810;BME280;40070;47.322;18.784;2023-06-26T05:49:14;1001.91;;;22.24;59.50
48810;BME280;40070;47.322;18.784;2023-06-26T05:51:17;1001.92;;;22.31;59.20
48810;BME280;40070;47.322;18.784;2023-06-26T05:53:19;1001.92;;;22.41;59.31
48810;BME280;40070;47.322;18.784;2023-06-26T05:55:22;1001.93;;;22.38;58.87
48810;BME280;40070;47.322;18.784;2023-06-26T05:57:26;1001.92;;;22.37;59.06
48810;BME280;40070;47.322;18.784;2023-06-26T05:59:29;1001.90;;;22.76;58.18
48810;BME280;40070;47.322;18.784;2023-06-26T06:01:33;1001.89;;;22.81;57.65
48810;BME280;40070;47.322;18.784;2023-06-26T06:03:35;1001.88;;;22.77;57.88
48810;BME280;40070;47.322;18.784;2023-06-26T06:05:38;1001.88;;;22.58;57.99
48810;BME280;40070;47.322;18.784;2023-06-26T06:07:41;1001.88;;;22.97;57.52
48810;BME280;40070;47.322;18.784;2023-06-26T06:09:43;1001.91;;;22.76;58.22
48810;BME280;40070;47.322;18.784;2023-06-26T06:11:46;1001.87;;;23.06;57.33
48810;BME280;40070;47.322;18.784;2023-06-26T06:13:48;1001.91;;;22.93;57.27
48810;BME280;40070;47.322;18.784;2023-06-26T06:15:51;1001.90;;;22.81;56.89
48810;BME280;40070;47.322;18.784;2023-06-26T06:17:53;1001.91;;;22.95;56.58
48810;BME280;40070;47.322;18.784;2023-06-26T06:19:56;1001.87;;;22.95;56.52
48810;BME280;40070;47.322;18.784;2023-06-26T06:21:58;1001.86;;;23.03;57.53
48810;BME280;40070;47.322;18.784;2023-06-26T06:24:01;1001.87;;;23.24;56.65
48810;BME280;40070;47.322;18.784;2023-06-26T06:26:03;1001.91;;;23.50;55.85
48810;BME280;40070;47.322;18.784;2023-06-26T06:28:06;1001.90;;;23.33;55.70
48810;BME280;40070;47.322;18.784;2023-06-26T06:30:09;1001.95;;;23.33;55.48
48810;BME280;40070;47.322;18.784;2023-06-26T06:32:11;1001.94;;;23.30;55.28
48810;BME280;40070;47.322;18.784;2023-06-26T06:34:14;1001.92;;;23.25;55.37
48810;BME280;40070;47.322;18.784;2023-06-26T06:36:17;1001.94;;;23.55;55.23
48810;BME280;40070;47.322;18.784;2023-06-26T06:38:19;1001.97;;;23.91;54.70
48810;BME280;40070;47.322;18.784;2023-06-26T06:40:22;1001.98;;;24.17;54.26
48810;BME280;40070;47.322;18.784;2023-06-26T06:42:24;1001.96;;;24.47;53.77
48810;BME280;40070;47.322;18.784;2023-06-26T06:44:27;1001.98;;;24.49;52.77
48810;BME280;40070;47.322;18.784;2023-06-26T06:46:29;1002.01;;;24.21;52.61
48810;BME280;40070;47.322;18.784;2023-06-26T06:48:32;1001.94;;;24.28;52.81
48810;BME280;40070;47.322;18.784;2023-06-26T06:50:34;1001.93;;;24.34;52.77
48810;BME280;40070;47.322;18.784;2023-06-26T06:52:37;1001.91;;;24.65;51.80
48810;BME280;40070;47.322;18.784;2023-06-26T06:55:01;1001.87;;;24.88;51.86
48810;BME280;40070;47.322;18.784;2023-06-26T06:57:04;1001.85;;;25.02;50.98
48810;BME280;40070;47.322;18.784;2023-06-26T06:59:07;1001.84;;;25.17;50.64
48810;BME280;40070;47.322;18.784;2023-06-26T07:01:09;1001.86;;;25.07;51.51
48810;BME280;40070;47.322;18.784;2023-06-26T07:03:12;1001.82;;;25.37;50.71
48810;BME280;40070;47.322;18.784;2023-06-26T07:05:14;1001.83;;;25.31;49.35
48810;BME280;40070;47.322;18.784;2023-06-26T07:07:18;1001.83;;;25.25;49.34
48810;BME280;40070;47.322;18.784;2023-06-26T07:09:21;1001.85;;;25.04;50.80
48810;BME280;40070;47.322;18.784;2023-06-26T07:11:23;1001.82;;;25.28;48.69
48810;BME280;40070;47.322;18.784;2023-06-26T07:13:26;1001.84;;;25.49;48.99
48810;BME280;40070;47.322;18.784;2023-06-26T07:15:28;1001.78;;;25.58;48.66
48810;BME280;40070;47.322;18.784;2023-06-26T07:17:34;1001.78;;;25.11;49.66
48810;BME280;40070;47.322;18.784;2023-06-26T07:19:38;1001.76;;;25.73;47.83
48810;BME280;40070;47.322;18.784;2023-06-26T07:21:40;1001.74;;;26.05;46.74
48810;BME280;40070;47.322;18.784;2023-06-26T07:23:43;1001.74;;;26.19;46.60
48810;BME280;40070;47.322;18.784;2023-06-26T07:25:45;1001.72;;;26.12;47.25
48810;BME280;40070;47.322;18.784;2023-06-26T07:27:48;1001.72;;;26.31;48.26
48810;BME280;40070;47.322;18.784;2023-06-26T07:29:50;1001.71;;;26.40;47.63
48810;BME280;40070;47.322;18.784;2023-06-26T07:31:53;1001.71;;;26.34;47.26
48810;BME280;40070;47.322;18.784;2023-06-26T07:33:55;1001.71;;;26.46;46.36
48810;BME280;40070;47.322;18.784;2023-06-26T07:35:58;1001.77;;;26.27;48.64
48810;BME280;40070;47.322;18.784;2023-06-26T07:38:00;1001.75;;;26.77;47.96
48810;BME280;40070;47.322;18.784;2023-06-26T07:40:03;1001.73;;;26.59;47.65
48810;BME280;40070;47.322;18.784;2023-06-26T07:42:06;1001.72;;;26.90;45.76
48810;BME280;40070;47.322;18.784;2023-06-26T07:44:08;1001.77;;;26.57;46.16
48810;BME280;40070;47.322;18.784;2023-06-26T07:46:11;1001.78;;;26.63;47.84
48810;BME280;40070;47.322;18.784;2023-06-26T07:48:13;1001.74;;;26.87;45.85
48810;BME280;40070;47.322;18.784;2023-06-26T07:50:16;1001.76;;;27.08;45.61
48810;BME280;40070;47.322;18.784;2023-06-26T07:52:18;1001.75;;;27.26;44.49
48810;BME280;40070;47.322;18.784;2023-06-26T07:54:21;1001.76;;;27.55;43.35
48810;BME280;40070;47.322;18.784;2023-06-26T07:56:24;1001.80;;;27.16;44.98
48810;BME280;40070;47.322;18.784;2023-06-26T07:58:26;1001.74;;;27.35;44.22
48810;BME280;40070;47.322;18.784;2023-06-26T08:00:29;1001.74;;;27.36;43.84
48810;BME280;40070;47.322;18.784;2023-06-26T08:02:31;1001.77;;;27.22;44.47
48810;BME280;40070;47.322;18.784;2023-06-26T08:04:34;1001.76;;;27.54;44.07
48810;BME280;40070;47.322;18.784;2023-06-26T08:06:36;1001.78;;;27.49;44.47
48810;BME280;40070;47.322;18.784;2023-06-26T08:08:39;1001.80;;;27.51;45.21
48810;BME280;40070;47.322;18.784;2023-06-26T08:10:41;1001.78;;;27.69;46.32
48810;BME280;40070;47.322;18.784;2023-06-26T08:12:44;1001.79;;;27.67;44.63
48810;BME280;40070;47.322;18.784;2023-06-26T08:14:46;1001.77;;;27.60;44.27
48810;BME280;40070;47.322;18.784;2023-06-26T08:16:50;1001.79;;;27.65;44.66
48810;BME280;40070;47.322;18.784;2023-06-26T08:18:52;1001.81;;;27.88;43.58
48810;BME280;40070;47.322;18.784;2023-06-26T08:20:55;1001.81;;;27.80;43.96
48810;BME280;40070;47.322;18.784;2023-06-26T08:22:57;1001.86;;;27.87;44.27
48810;BME280;40070;47.322;18.784;2023-06-26T08:25:00;1001.85;;;28.21;45.15
48810;BME280;40070;47.322;18.784;2023-06-26T08:27:02;1001.85;;;28.26;43.73
48810;BME280;40070;47.322;18.784;2023-06-26T08:29:05;1001.82;;;28.70;42.15
48810;BME280;40070;47.322;18.784;2023-06-26T08:31:07;1001.88;;;28.57;42.77
48810;BME280;40070;47.322;18.784;2023-06-26T08:33:10;1001.86;;;28.66;42.29
48810;BME280;40070;47.322;18.784;2023-06-26T08:35:12;1001.84;;;28.64;41.26
48810;BME280;40070;47.322;18.784;2023-06-26T08:37:15;1001.83;;;28.49;42.07
48810;BME280;40070;47.322;18.784;2023-06-26T08:39:17;1001.83;;;28.29;42.41
48810;BME280;40070;47.322;18.784;2023-06-26T08:41:20;1001.80;;;28.25;42.97
48810;BME280;40070;47.322;18.784;2023-06-26T08:43:22;1001.85;;;27.94;42.10
48810;BME280;40070;47.322;18.784;2023-06-26T08:45:25;1001.82;;;28.17;40.95
48810;BME280;40070;47.322;18.784;2023-06-26T08:47:27;1001.80;;;28.27;40.05
48810;BME280;40070;47.322;18.784;2023-06-26T08:50:14;1001.77;;;28.88;39.46
48810;BME280;40070;47.322;18.784;2023-06-26T08:51:51;1001.74;;;28.89;40.48
48810;BME280;40070;47.322;18.784;2023-06-26T08:54:01;1001.69;;;28.89;40.27
48810;BME280;40070;47.322;18.784;2023-06-26T08:56:03;1001.68;;;28.81;39.68
48810;BME280;40070;47.322;18.784;2023-06-26T08:58:06;1001.67;;;29.12;39.70
48810;BME280;40070;47.322;18.784;2023-06-26T09:00:09;1001.76;;;28.59;40.51
48810;BME280;40070;47.322;18.784;2023-06-26T09:02:12;1001.74;;;28.69;40.92
48810;BME280;40070;47.322;18.784;2023-06-26T09:04:14;1001.67;;;28.97;40.95
48810;BME280;40070;47.322;18.784;2023-06-26T09:06:17;1001.69;;;29.18;40.61
48810;BME280;40070;47.322;18.784;2023-06-26T09:08:19;1001.67;;;29.20;41.61
48810;BME280;40070;47.322;18.784;2023-06-26T09:10:22;1001.67;;;29.42;39.44
48810;BME280;40070;47.322;18.784;2023-06-26T09:12:26;1001.70;;;29.23;38.73
48810;BME280;40070;47.322;18.784;2023-06-26T09:14:29;1001.67;;;29.41;38.20
48810;BME280;40070;47.322;18.784;2023-06-26T09:16:32;1001.69;;;29.36;39.16
48810;BME280;40070;47.322;18.784;2023-06-26T09:18:41;1001.68;;;29.87;39.42
48810;BME280;40070;47.322;18.784;2023-06-26T09:20:44;1001.66;;;29.68;39.49
48810;BME280;40070;47.322;18.784;2023-06-26T09:22:47;1001.69;;;29.41;38.58
48810;BME280;40070;47.322;18.784;2023-06-26T09:24:49;1001.68;;;29.07;38.66
48810;BME280;40070;47.322;18.784;2023-06-26T09:26:52;1001.65;;;29.01;38.61
48810;BME280;40070;47.322;18.784;2023-06-26T09:28:54;1001.69;;;29.09;40.06
48810;BME280;40070;47.322;18.784;2023-06-26T09:31:00;1001.69;;;29.18;39.44
48810;BME280;40070;47.322;18.784;2023-06-26T09:33:23;1001.70;;;29.25;38.88
48810;BME280;40070;47.322;18.784;2023-06-26T09:35:17;1001.69;;;28.91;39.69
48810;BME280;40070;47.322;18.784;2023-06-26T09:37:20;1001.61;;;28.98;38.39
48810;BME280;40070;47.322;18.784;2023-06-26T09:39:22;1001.59;;;29.13;38.06
48810;BME280;40070;47.322;18.784;2023-06-26T09:41:25;1001.60;;;29.29;38.93
48810;BME280;40070;47.322;18.784;2023-06-26T09:43:27;1001.60;;;29.23;39.53
48810;BME280;40070;47.322;18.784;2023-06-26T09:45:30;1001.54;;;29.62;38.76
48810;BME280;40070;47.322;18.784;2023-06-26T09:47:34;1001.57;;;29.71;40.17
48810;BME280;40070;47.322;18.784;2023-06-26T09:49:36;1001.63;;;29.81;38.06
48810;BME280;40070;47.322;18.784;2023-06-26T09:51:41;1001.58;;;29.98;36.29
48810;BME280;40070;47.322;18.784;2023-06-26T09:53:44;1001.57;;;29.99;36.60
48810;BME280;40070;47.322;18.784;2023-06-26T09:55:46;1001.56;;;30.22;34.83
48810;BME280;40070;47.322;18.784;2023-06-26T09:57:49;1001.55;;;30.05;35.46
48810;BME280;40070;47.322;18.784;2023-06-26T09:59:52;1001.51;;;30.35;36.95
48810;BME280;40070;47.322;18.784;2023-06-26T10:01:58;1001.52;;;30.58;34.98
48810;BME280;40070;47.322;18.784;2023-06-26T10:04:01;1001.47;;;30.62;33.74
48810;BME280;40070;47.322;18.784;2023-06-26T10:06:03;1001.48;;;30.09;33.46
48810;BME280;40070;47.322;18.784;2023-06-26T10:08:06;1001.51;;;30.08;34.11
48810;BME280;40070;47.322;18.784;2023-06-26T10:10:08;1001.47;;;30.57;34.61
48810;BME280;40070;47.322;18.784;2023-06-26T10:12:17;1001.48;;;30.39;34.91
48810;BME280;40070;47.322;18.784;2023-06-26T10:14:21;1001.43;;;30.76;36.12
48810;BME280;40070;47.322;18.784;2023-06-26T10:16:25;1001.42;;;30.80;36.43
48810;BME280;40070;47.322;18.784;2023-06-26T10:18:29;1001.44;;;30.64;36.95
48810;BME280;40070;47.322;18.784;2023-06-26T10:20:34;1001.38;;;30.92;34.86
48810;BME280;40070;47.322;18.784;2023-06-26T10:22:42;1001.43;;;31.11;34.02
48810;BME280;40070;47.322;18.784;2023-06-26T10:24:47;1001.38;;;31.03;35.44
48810;BME280;40070;47.322;18.784;2023-06-26T10:26:51;1001.36;;;31.21;33.94
48810;BME280;40070;47.322;18.784;2023-06-26T10:28:54;1001.34;;;31.22;33.10
48810;BME280;40070;47.322;18.784;2023-06-26T10:30:57;1001.31;;;30.84;33.03
48810;BME280;40070;47.322;18.784;2023-06-26T10:33:00;1001.38;;;30.74;35.09
48810;BME280;40070;47.322;18.784;2023-06-26T10:35:05;1001.41;;;30.48;35.52
48810;BME280;40070;47.322;18.784;2023-06-26T10:37:08;1001.36;;;30.67;37.36
48810;BME280;40070;47.322;18.784;2023-06-26T10:39:10;1001.33;;;30.60;35.41
48810;BME280;40070;47.322;18.784;2023-06-26T10:41:13;1001.35;;;30.61;36.81
48810;BME280;40070;47.322;18.784;2023-06-26T10:43:15;1001.33;;;30.06;35.05
48810;BME280;40070;47.322;18.784;2023-06-26T10:45:21;1001.38;;;29.91;33.73
48810;BME280;40070;47.322;18.784;2023-06-26T10:47:29;1001.43;;;30.46;35.69
48810;BME280;40070;47.322;18.784;2023-06-26T10:49:32;1001.41;;;30.60;33.15
48810;BME280;40070;47.322;18.784;2023-06-26T10:51:34;1001.29;;;30.87;33.42
48810;BME280;40070;47.322;18.784;2023-06-26T10:53:37;1001.37;;;30.57;35.41
48810;BME280;40070;47.322;18.784;2023-06-26T10:55:43;1001.32;;;31.11;35.02